Time;durP1;ratioP1;P1;durP2;ratioP2;P2;SDS_P1;SDS_P2;PMS_P1;PMS_P2;Temp;Humidity;BMP_temperature;BMP_pressure;BME280_temperature;BME280_humidity;BME280_pressure;Samples;Min_cycle;Max_cycle;Signal;HPM_P1;HPM_P2
2021/05/26 00:00:31;;;;;;;1999.90;999.90;;;10.40;99.90;;;;;;5055544;28;20253;-79
2021/05/26 00:02:57;;;;;;;1999.90;999.90;;;10.30;99.90;;;;;;5055276;28;20175;-79
2021/05/26 00:05:23;;;;;;;1999.90;999.90;;;10.30;99.90;;;;;;5073402;28;20586;-80
2021/05/26 00:07:49;;;;;;;1999.90;999.90;;;10.30;99.90;;;;;;5072996;28;20176;-79
2021/05/26 00:10:16;;;;;;;1999.90;999.90;;;10.40;99.90;;;;;;5073299;28;20580;-80
2021/05/26 00:12:42;;;;;;;1999.90;999.90;;;10.40;99.90;;;;;;5073168;28;20182;-79
2021/05/26 00:15:09;;;;;;;1999.90;999.90;;;10.40;99.90;;;;;;5073421;28;20203;-80
2021/05/26 00:17:34;;;;;;;1999.90;999.90;;;10.40;99.90;;;;;;5072977;28;20398;-79
2021/05/26 00:20:00;;;;;;;1999.90;999.90;;;10.40;99.90;;;;;;5073141;28;20718;-79
2021/05/26 00:22:26;;;;;;;1999.90;999.90;;;10.50;99.90;;;;;;5073133;28;20191;-79
2021/05/26 00:24:52;;;;;;;1999.90;999.90;;;10.50;99.90;;;;;;5055131;28;20192;-79
2021/05/26 00:27:21;;;;;;;1999.90;999.90;;;10.50;99.90;;;;;;5055113;28;20510;-79
2021/05/26 00:29:48;;;;;;;1999.90;999.90;;;10.50;99.90;;;;;;5074445;28;20501;-79
2021/05/26 00:32:14;;;;;;;1999.90;999.90;;;10.50;99.90;;;;;;5076716;28;20156;-79
2021/05/26 00:34:39;;;;;;;1999.90;999.90;;;10.50;99.90;;;;;;5077408;28;20191;-80
2021/05/26 00:37:05;;;;;;;1999.90;999.90;;;10.50;99.90;;;;;;5076479;28;20418;-79
2021/05/26 00:39:32;;;;;;;1999.90;999.90;;;10.50;99.90;;;;;;5058635;28;20191;-79
2021/05/26 00:41:57;;;;;;;1999.90;999.90;;;10.50;99.90;;;;;;5076779;28;20259;-79
2021/05/26 00:44:23;;;;;;;1999.90;999.90;;;10.50;99.90;;;;;;5076642;28;20275;-79
2021/05/26 00:46:49;;;;;;;1999.90;999.90;;;10.50;99.90;;;;;;5076666;28;20183;-79
2021/05/26 00:49:15;;;;;;;1999.90;999.90;;;10.50;99.90;;;;;;5076297;28;20651;-80
2021/05/26 00:51:41;;;;;;;1999.90;999.90;;;10.50;99.90;;;;;;5076503;28;20165;-79
2021/05/26 00:54:07;;;;;;;1999.90;999.90;;;10.50;99.90;;;;;;5076658;28;20182;-79
2021/05/26 00:56:34;;;;;;;1999.90;999.90;;;10.50;99.90;;;;;;5076470;28;20812;-79
2021/05/26 00:59:01;;;;;;;1999.90;999.90;;;10.50;99.90;;;;;;5076537;28;20568;-79
2021/05/26 01:01:27;;;;;;;1999.90;999.90;;;10.50;99.90;;;;;;5076601;28;20165;-79
2021/05/26 01:03:58;;;;;;;1999.90;999.90;;;10.50;99.90;;;;;;5076338;28;20717;-79
2021/05/26 01:06:24;;;;;;;1999.90;999.90;;;10.50;99.90;;;;;;5076508;28;20387;-79
2021/05/26 01:08:50;;;;;;;1999.90;999.90;;;10.40;99.90;;;;;;5076110;28;20258;-79
2021/05/26 01:11:16;;;;;;;1999.90;999.90;;;10.40;99.90;;;;;;5059027;28;20731;-79
2021/05/26 01:13:42;;;;;;;1999.90;999.90;;;10.40;99.90;;;;;;5076058;28;20295;-79
2021/05/26 01:16:08;;;;;;;1999.90;999.90;;;10.40;99.90;;;;;;5057689;28;20221;-79
2021/05/26 01:18:35;;;;;;;1999.90;999.90;;;10.40;99.90;;;;;;5075576;28;20515;-79
2021/05/26 01:21:05;;;;;;;1999.90;999.90;;;10.40;99.90;;;;;;5058139;28;20160;-78
2021/05/26 01:23:31;;;;;;;1999.90;999.90;;;10.40;99.90;;;;;;5075673;28;20164;-79
2021/05/26 01:25:59;;;;;;;1999.90;999.90;;;10.40;99.90;;;;;;5075649;28;20187;-78
2021/05/26 01:28:28;;;;;;;1999.90;999.90;;;10.40;99.90;;;;;;5076037;28;20196;-79
2021/05/26 01:30:55;;;;;;;1999.90;999.90;;;10.30;99.90;;;;;;5057409;28;20164;-79
2021/05/26 01:33:21;;;;;;;1999.90;999.90;;;10.30;99.90;;;;;;5075392;28;20174;-79
2021/05/26 01:35:48;;;;;;;1999.90;999.90;;;10.20;99.90;;;;;;5058458;28;20168;-79
2021/05/26 01:38:15;;;;;;;1999.90;999.90;;;10.20;99.90;;;;;;5075389;28;20490;-79
2021/05/26 01:40:42;;;;;;;1999.90;999.90;;;10.30;99.90;;;;;;5074858;28;20164;-79
2021/05/26 01:43:08;;;;;;;1999.90;999.90;;;10.30;99.90;;;;;;5075329;28;20164;-79
2021/05/26 01:45:37;;;;;;;1999.90;999.90;;;10.30;99.90;;;;;;5075170;28;20187;-79
2021/05/26 01:48:03;;;;;;;1999.90;999.90;;;10.30;99.90;;;;;;5075135;28;20271;-79
2021/05/26 01:50:28;;;;;;;1999.90;999.90;;;10.20;99.90;;;;;;5057290;28;20195;-79
2021/05/26 01:52:59;;;;;;;1999.90;999.90;;;10.30;99.90;;;;;;5075305;28;20405;-79
2021/05/26 01:55:25;;;;;;;1999.90;999.90;;;10.20;99.90;;;;;;5075337;28;20609;-79
2021/05/26 01:57:51;;;;;;;1999.90;999.90;;;10.20;99.90;;;;;;5074816;28;20253;-80
2021/05/26 02:00:19;;;;;;;1999.90;999.90;;;10.20;99.90;;;;;;5075257;28;20256;-79
2021/05/26 02:02:45;;;;;;;1999.90;999.90;;;10.30;99.90;;;;;;5074983;28;20169;-79
2021/05/26 02:05:12;;;;;;;1999.90;999.90;;;10.20;99.90;;;;;;5075183;28;20536;-79
2021/05/26 02:07:38;;;;;;;1999.90;999.90;;;10.20;99.90;;;;;;5057460;28;20517;-80
2021/05/26 02:10:06;;;;;;;1999.90;999.90;;;10.20;99.90;;;;;;5056994;28;20263;-79
2021/05/26 02:12:33;;;;;;;1999.90;999.90;;;10.20;99.90;;;;;;5074909;28;20803;-80
2021/05/26 02:15:00;;;;;;;1999.90;999.90;;;10.30;99.90;;;;;;5056912;28;20168;-79
2021/05/26 02:17:26;;;;;;;1999.90;999.90;;;10.20;99.90;;;;;;5074602;28;20183;-79
2021/05/26 02:19:51;;;;;;;1999.90;999.90;;;10.20;99.90;;;;;;5074751;28;20167;-79
2021/05/26 02:22:18;;;;;;;1999.90;999.90;;;10.20;99.90;;;;;;5057207;28;20171;-79
2021/05/26 02:24:45;;;;;;;1999.90;999.90;;;10.30;99.90;;;;;;5074611;28;20297;-79
2021/05/26 02:27:11;;;;;;;1999.90;999.90;;;10.20;99.90;;;;;;5075131;28;20165;-80
2021/05/26 02:29:38;;;;;;;1999.90;999.90;;;10.10;99.90;;;;;;5056457;28;20214;-80
2021/05/26 02:32:05;;;;;;;1999.90;999.90;;;10.10;99.90;;;;;;5074804;28;20167;-79
2021/05/26 02:34:31;;;;;;;1999.90;999.90;;;10.10;99.90;;;;;;5074426;28;20299;-80
2021/05/26 02:36:57;;;;;;;1999.90;999.90;;;10.20;99.90;;;;;;5074319;28;20179;-79
2021/05/26 02:39:23;;;;;;;1999.90;999.90;;;10.20;99.90;;;;;;5074515;28;20188;-80
2021/05/26 02:41:48;;;;;;;1999.90;999.90;;;10.20;99.90;;;;;;5074485;28;20168;-79
2021/05/26 02:44:14;;;;;;;1999.90;999.90;;;10.20;99.90;;;;;;5074817;28;20183;-79
2021/05/26 02:46:40;;;;;;;1999.90;999.90;;;10.20;99.90;;;;;;5056692;28;20776;-79
2021/05/26 02:49:06;;;;;;;1999.90;999.90;;;10.20;99.90;;;;;;5074223;28;20712;-79
2021/05/26 02:51:33;;;;;;;1999.90;999.90;;;10.10;99.90;;;;;;5056509;28;20619;-79
2021/05/26 02:53:59;;;;;;;1999.90;999.90;;;10.10;99.90;;;;;;5055828;28;20502;-79
2021/05/26 02:56:25;;;;;;;1999.90;999.90;;;10.20;99.90;;;;;;5056551;28;20164;-80
2021/05/26 02:58:51;;;;;;;1999.90;999.90;;;10.20;99.90;;;;;;5074198;28;20209;-80
2021/05/26 03:01:16;;;;;;;1999.90;999.90;;;10.20;99.90;;;;;;5056505;28;20168;-80
2021/05/26 03:03:42;;;;;;;1999.90;999.90;;;10.10;99.90;;;;;;5074164;28;20628;-79
2021/05/26 03:06:08;;;;;;;1999.90;999.90;;;10.10;99.90;;;;;;5074106;28;20213;-80
2021/05/26 03:08:33;;;;;;;1999.90;999.90;;;10.00;99.90;;;;;;5074038;28;20219;-79
2021/05/26 03:10:59;;;;;;;1999.90;999.90;;;10.10;99.90;;;;;;5074049;28;20184;-79
2021/05/26 03:13:26;;;;;;;1999.90;999.90;;;10.10;99.90;;;;;;5074213;28;20164;-80
2021/05/26 03:15:53;;;;;;;1999.90;999.90;;;10.10;99.90;;;;;;5074205;28;20531;-80
2021/05/26 03:18:19;;;;;;;1999.90;999.90;;;10.10;99.90;;;;;;5073787;28;20191;-79
2021/05/26 03:20:45;;;;;;;1999.90;999.90;;;10.10;99.90;;;;;;5056063;28;20585;-80
2021/05/26 03:23:15;;;;;;;1999.90;999.90;;;10.10;99.90;;;;;;5073840;28;20195;-81
2021/05/26 03:25:41;;;;;;;1999.90;999.90;;;10.10;99.90;;;;;;5073737;28;20293;-79
2021/05/26 03:28:07;;;;;;;1999.90;999.90;;;10.20;99.90;;;;;;5073720;28;20185;-79
2021/05/26 03:30:33;;;;;;;1999.90;999.90;;;10.10;99.90;;;;;;5073816;28;20243;-80
2021/05/26 03:33:00;;;;;;;1999.90;999.90;;;10.10;99.90;;;;;;5073785;28;20406;-79
2021/05/26 03:35:26;;;;;;;1999.90;999.90;;;10.20;99.90;;;;;;5073944;28;20234;-80
2021/05/26 03:37:52;;;;;;;1999.90;999.90;;;10.10;99.90;;;;;;5055417;28;20203;-80
2021/05/26 03:40:18;;;;;;;1999.90;999.90;;;10.10;99.90;;;;;;5073931;28;20673;-79
2021/05/26 03:42:44;;;;;;;1999.90;999.90;;;10.10;99.90;;;;;;5073689;28;20811;-80
2021/05/26 03:45:14;;;;;;;1999.90;999.90;;;10.10;99.90;;;;;;5055705;28;20198;-80
2021/05/26 03:47:40;;;;;;;1999.90;999.90;;;10.20;99.90;;;;;;5074590;28;20673;-80
2021/05/26 03:50:12;;;;;;;1999.90;999.90;;;10.20;99.90;;;;;;5055692;28;20190;-79
2021/05/26 03:52:42;;;;;;;1999.90;999.90;;;10.20;99.90;;;;;;5073779;28;20136;-80
2021/05/26 03:55:11;;;;;;;1999.90;999.90;;;10.20;99.90;;;;;;5055502;28;20654;-80
2021/05/26 03:57:38;;;;;;;1999.90;999.90;;;10.10;99.90;;;;;;5055520;28;20549;-79
2021/05/26 04:00:09;;;;;;;1999.90;999.90;;;10.10;99.90;;;;;;5073681;28;20672;-79
2021/05/26 04:02:36;;;;;;;1999.90;999.90;;;10.20;99.90;;;;;;5073789;28;20156;-80
2021/05/26 04:05:02;;;;;;;1999.90;999.90;;;10.20;99.90;;;;;;5076773;28;20197;-79
2021/05/26 04:07:28;;;;;;;1999.90;999.90;;;10.20;99.90;;;;;;5077398;28;20649;-80
2021/05/26 04:09:54;;;;;;;1999.90;999.90;;;10.20;99.90;;;;;;5077457;28;20174;-80
2021/05/26 04:12:19;;;;;;;1999.90;999.90;;;10.20;99.90;;;;;;5077819;28;20574;-80
2021/05/26 04:14:45;;;;;;;1999.90;999.90;;;10.30;99.90;;;;;;5059885;28;20171;-80
2021/05/26 04:17:11;;;;;;;1999.90;999.90;;;10.20;99.90;;;;;;5077553;28;20165;-80
2021/05/26 04:19:36;;;;;;;1999.90;999.90;;;10.20;99.90;;;;;;5077879;28;20188;-81
2021/05/26 04:22:02;;;;;;;1999.90;999.90;;;10.20;99.90;;;;;;5059947;28;20300;-80
2021/05/26 04:24:28;;;;;;;1999.90;999.90;;;10.20;99.90;;;;;;5077489;28;20192;-79
2021/05/26 04:26:59;;;;;;;1999.90;999.90;;;10.30;99.90;;;;;;5059741;28;20198;-80
2021/05/26 04:29:25;;;;;;;1999.90;999.90;;;10.20;99.90;;;;;;5077353;28;20241;-80
2021/05/26 04:31:51;;;;;;;1999.90;999.90;;;10.30;99.90;;;;;;5077686;28;20160;-80
2021/05/26 04:34:16;;;;;;;1999.90;999.90;;;10.30;99.90;;;;;;5077812;28;20164;-80
2021/05/26 04:36:42;;;;;;;1999.90;999.90;;;10.30;99.90;;;;;;5059760;28;20181;-80
2021/05/26 04:39:08;;;;;;;1999.90;999.90;;;10.30;99.90;;;;;;5077871;28;20186;-80
2021/05/26 04:41:34;;;;;;;1999.90;999.90;;;10.40;99.90;;;;;;5077782;28;20274;-80
2021/05/26 04:44:00;;;;;;;1999.90;999.90;;;10.50;99.90;;;;;;5077299;28;20201;-80
2021/05/26 04:46:25;;;;;;;1999.90;999.90;;;10.50;99.90;;;;;;5059637;28;20421;-80
2021/05/26 04:48:51;;;;;;;1999.90;999.90;;;10.60;99.90;;;;;;5077816;28;20184;-81
2021/05/26 04:51:17;;;;;;;1999.90;999.90;;;10.60;99.90;;;;;;5077673;28;20165;-80
2021/05/26 04:53:42;;;;;;;1999.90;999.90;;;10.60;99.90;;;;;;5077288;28;20194;-80
2021/05/26 04:56:08;;;;;;;1999.90;999.90;;;10.60;99.90;;;;;;5077153;28;20483;-80
2021/05/26 04:58:33;;;;;;;1999.90;999.90;;;10.70;99.90;;;;;;5076732;28;20211;-80
2021/05/26 05:01:00;;;;;;;1999.90;999.90;;;10.80;99.90;;;;;;5058858;28;20168;-80
2021/05/26 05:03:25;;;;;;;1999.90;999.90;;;10.80;99.90;;;;;;5076934;28;20163;-80
2021/05/26 05:05:51;;;;;;;1999.90;999.90;;;10.80;99.90;;;;;;5076549;28;20191;-80
2021/05/26 05:08:17;;;;;;;1999.90;999.90;;;10.80;99.90;;;;;;5076493;28;20237;-81
2021/05/26 05:10:42;;;;;;;1999.90;999.90;;;10.80;99.90;;;;;;5058696;28;20260;-80
2021/05/26 05:13:08;;;;;;;1999.90;999.90;;;10.80;99.90;;;;;;5077532;28;20647;-80
2021/05/26 05:15:33;;;;;;;1999.90;999.90;;;10.80;99.90;;;;;;5075767;28;20189;-80
2021/05/26 05:17:59;;;;;;;1999.90;999.90;;;10.90;99.90;;;;;;5076410;28;20190;-80
2021/05/26 05:20:25;;;;;;;1999.90;999.90;;;10.90;99.90;;;;;;5076362;28;20584;-80
2021/05/26 05:22:52;;;;;;;1999.90;999.90;;;11.00;99.90;;;;;;5076342;28;20171;-80
2021/05/26 05:25:19;;;;;;;1999.90;999.90;;;11.00;99.90;;;;;;5076024;28;20237;-80
2021/05/26 05:27:44;;;;;;;1999.90;999.90;;;11.10;99.90;;;;;;5076019;28;20184;-80
2021/05/26 05:30:11;;;;;;;1999.90;999.90;;;11.10;99.90;;;;;;5057906;28;20164;-80
2021/05/26 05:32:37;;;;;;;1999.90;999.90;;;11.10;99.90;;;;;;5076123;28;20172;-79
2021/05/26 05:35:03;;;;;;;1999.90;999.90;;;11.00;99.90;;;;;;5076006;28;20178;-80
2021/05/26 05:37:29;;;;;;;1999.90;999.90;;;11.20;99.90;;;;;;5132529;23;20223;-84
2021/05/26 05:39:55;;;;;;;1999.90;999.90;;;11.30;99.90;;;;;;5088938;28;20170;-84
2021/05/26 05:42:24;;;;;;;1999.90;999.90;;;11.30;99.90;;;;;;5088288;28;20231;-84
2021/05/26 05:44:49;;;;;;;1999.90;999.90;;;11.40;99.90;;;;;;5081741;28;20446;-85
2021/05/26 05:47:15;;;;;;;1999.90;999.90;;;11.50;99.90;;;;;;5085606;28;20191;-84
2021/05/26 05:49:41;;;;;;;1999.90;999.90;;;11.50;99.90;;;;;;5083092;28;20188;-84
2021/05/26 05:52:24;;;;;;;1999.90;999.90;;;11.60;99.90;;;;;;5082214;28;20564;-84
2021/05/26 05:54:53;;;;;;;1999.90;999.90;;;11.60;99.90;;;;;;5083068;28;20167;-84
2021/05/26 05:57:54;;;;;;;1999.90;999.90;;;11.70;99.90;;;;;;5083127;28;20187;-83
2021/05/26 06:11:14;;;;;;;;;;;;;;;;;;;;;
2021/05/26 06:14:33;;;;;;;1999.90;999.90;;;12.10;99.90;;;;;;5048468;28;20228;-83
2021/05/26 06:20:27;;;;;;;1999.90;999.90;;;12.20;99.90;;;;;;5179060;22;20236;-84
2021/05/26 06:39:24;;;;;;;1999.90;999.90;;;12.30;99.90;;;;;;4980139;28;20192;-83
2021/05/26 06:42:12;;;;;;;1999.90;999.90;;;12.40;99.90;;;;;;4980458;28;20249;-82
2021/05/26 06:44:45;;;;;;;1999.90;999.90;;;12.40;99.90;;;;;;5041990;28;20541;-82
2021/05/26 06:47:17;;;;;;;1999.90;999.90;;;12.20;99.90;;;;;;5027087;28;20175;-83
2021/05/26 06:49:45;;;;;;;1999.90;999.90;;;12.30;99.90;;;;;;5026422;28;20197;-83
2021/05/26 06:52:19;;;;;;;1999.90;999.90;;;12.40;99.90;;;;;;5044958;28;20403;-83
2021/05/26 06:57:54;;;;;;;1999.90;999.90;;;12.60;99.90;;;;;;5041857;28;20208;-83
2021/05/26 07:00:20;;;;;;;1999.90;999.90;;;12.50;99.90;;;;;;5026453;28;20169;-83
2021/05/26 07:02:46;;;;;;;1999.90;999.90;;;12.50;99.90;;;;;;5045187;28;20173;-84
2021/05/26 07:05:17;;;;;;;1999.90;999.90;;;12.70;99.90;;;;;;5029561;28;20467;-82
2021/05/26 07:07:48;;;;;;;1999.90;999.90;;;12.80;99.90;;;;;;5030295;28;20428;-84
2021/05/26 07:10:16;;;;;;;1999.90;999.90;;;12.80;99.90;;;;;;5029155;28;20233;-84
2021/05/26 07:12:42;;;;;;;1999.90;999.90;;;12.80;99.90;;;;;;5029612;28;20408;-84
2021/05/26 07:15:14;;;;;;;1999.90;999.90;;;12.90;99.90;;;;;;5045846;28;20176;-83
2021/05/26 07:17:46;;;;;;;1999.90;999.90;;;13.00;99.90;;;;;;5028370;28;20435;-84
2021/05/26 07:20:13;;;;;;;1999.90;999.90;;;13.10;99.90;;;;;;5028609;28;20396;-84
2021/05/26 07:22:39;;;;;;;1999.90;999.90;;;13.10;99.90;;;;;;5045619;28;20415;-84
2021/05/26 07:25:05;;;;;;;1999.90;999.90;;;13.20;99.90;;;;;;5045864;28;20444;-83
2021/05/26 07:27:31;;;;;;;1999.90;999.90;;;13.30;99.90;;;;;;5046879;28;20400;-84
2021/05/26 07:29:56;;;;;;;1999.90;999.90;;;13.40;99.90;;;;;;5046407;28;20424;-84
2021/05/26 07:32:25;;;;;;;1999.90;999.90;;;13.60;99.90;;;;;;5046533;28;20169;-84
2021/05/26 07:34:51;;;;;;;1999.90;999.90;;;13.70;99.90;;;;;;5044026;28;20215;-83
2021/05/26 07:37:16;;;;;;;1999.90;999.90;;;13.80;99.90;;;;;;5041006;28;20408;-82
2021/05/26 07:39:42;;;;;;;1999.90;999.90;;;13.70;99.90;;;;;;5024212;28;20256;-83
2021/05/26 07:42:09;;;;;;;1999.90;999.90;;;13.50;99.90;;;;;;5025735;28;20509;-84
2021/05/26 07:44:38;;;;;;;1999.90;999.90;;;13.50;99.90;;;;;;5038195;28;20451;-82
2021/05/26 07:47:13;;;;;;;1999.90;999.90;;;13.50;99.90;;;;;;5043454;28;20404;-84
2021/05/26 07:49:38;;;;;;;1999.90;999.90;;;13.60;99.90;;;;;;5044280;28;20430;-83
2021/05/26 07:52:09;;;;;;;1999.90;999.90;;;13.70;99.90;;;;;;5044062;28;20400;-83
2021/05/26 07:54:35;;;;;;;1999.90;999.90;;;13.70;99.90;;;;;;5042191;28;20229;-84
2021/05/26 07:57:01;;;;;;;1999.90;999.90;;;13.60;99.90;;;;;;5040907;28;20418;-83
2021/05/26 07:59:27;;;;;;;1999.90;999.90;;;13.50;99.90;;;;;;5040384;28;20423;-82
2021/05/26 08:01:53;;;;;;;1999.90;999.90;;;13.50;99.90;;;;;;5039742;28;20408;-82
2021/05/26 08:04:22;;;;;;;1999.90;999.90;;;13.50;99.90;;;;;;5037880;28;20216;-83
2021/05/26 08:06:48;;;;;;;1999.90;999.90;;;13.60;99.90;;;;;;5036971;28;20392;-81
2021/05/26 08:09:14;;;;;;;1999.90;999.90;;;13.60;99.90;;;;;;5036544;28;20927;-81
2021/05/26 08:11:40;;;;;;;1999.90;999.90;;;13.70;99.90;;;;;;5036976;28;20396;-82
2021/05/26 08:14:06;;;;;;;1999.90;999.90;;;13.60;99.90;;;;;;5019129;28;20196;-80
2021/05/26 08:16:32;;;;;;;1999.90;999.90;;;13.60;99.90;;;;;;5019735;28;20408;-81
2021/05/26 08:18:58;;;;;;;1999.90;999.90;;;13.50;99.90;;;;;;5036741;28;20259;-81
2021/05/26 08:21:24;;;;;;;1999.90;999.90;;;13.50;99.90;;;;;;5036051;28;20185;-81
2021/05/26 08:23:50;;;;;;;1999.90;999.90;;;13.40;99.90;;;;;;5036297;28;20215;-80
2021/05/26 08:26:17;;;;;;;1999.90;999.90;;;13.40;99.90;;;;;;5018512;28;20554;-82
2021/05/26 08:28:43;;;;;;;1999.90;999.90;;;13.50;99.90;;;;;;5035500;28;20432;-82
2021/05/26 08:31:10;;;;;;;1999.90;999.90;;;13.60;99.90;;;;;;5035830;28;20483;-80
2021/05/26 08:33:36;;;;;;;1999.90;999.90;;;13.60;99.90;;;;;;5034643;28;20404;-80
2021/05/26 08:36:02;;;;;;;1999.90;999.90;;;13.70;99.90;;;;;;5017313;28;20412;-81
2021/05/26 08:38:28;;;;;;;1999.90;999.90;;;13.70;99.90;;;;;;5035051;28;20432;-80
2021/05/26 08:40:55;;;;;;;1999.90;999.90;;;13.70;99.90;;;;;;5034521;28;20400;-81
2021/05/26 08:43:24;;;;;;;1999.90;999.90;;;13.70;99.90;;;;;;5016627;28;20165;-80
2021/05/26 08:45:49;;;;;;;1999.90;999.90;;;13.70;99.90;;;;;;5035158;28;20474;-81
2021/05/26 08:48:17;;;;;;;1999.90;999.90;;;13.80;99.90;;;;;;5034867;28;20970;-81
2021/05/26 08:50:46;;;;;;;1999.90;999.90;;;14.00;99.90;;;;;;5036139;28;20166;-81
2021/05/26 08:53:15;;;;;;;1999.90;999.90;;;14.20;99.90;;;;;;5037973;28;20908;-81
2021/05/26 08:55:40;;;;;;;1999.90;999.90;;;14.40;99.90;;;;;;5038418;28;20412;-80
2021/05/26 08:58:06;;;;;;;1999.90;999.90;;;14.60;99.90;;;;;;5020566;28;20439;-80
2021/05/26 09:00:32;;;;;;;1999.90;999.90;;;14.60;99.90;;;;;;5038016;28;20661;-81
2021/05/26 09:02:58;;;;;;;1999.90;999.90;;;14.60;99.90;;;;;;5038213;28;20173;-81
2021/05/26 09:05:29;;;;;;;1999.90;999.90;;;14.70;99.90;;;;;;5038482;28;20450;-80
2021/05/26 09:07:56;;;;;;;1999.90;999.90;;;14.80;99.90;;;;;;5023317;28;20189;-81
2021/05/26 09:10:22;;;;;;;1999.90;999.90;;;15.00;99.90;;;;;;5021565;28;20408;-80
2021/05/26 09:12:55;;;;;;;1999.90;999.90;;;15.00;99.90;;;;;;5022134;28;20463;-81
2021/05/26 09:15:21;;;;;;;1999.90;999.90;;;15.10;99.90;;;;;;5020469;28;20455;-82
2021/05/26 09:17:55;;;;;;;1999.90;999.90;;;15.10;99.90;;;;;;5037755;28;20420;-80
2021/05/26 09:20:24;;;;;;;1999.90;999.90;;;15.20;99.90;;;;;;5038399;28;20498;-81
2021/05/26 09:23:02;;;;;;;1999.90;999.90;;;15.20;99.90;;;;;;5021356;28;20909;-82
2021/05/26 09:25:29;;;;;;;1999.90;999.90;;;15.20;99.90;;;;;;5038133;28;20477;-81
2021/05/26 09:28:17;;;;;;;1999.90;999.90;;;15.20;99.90;;;;;;5018986;28;20436;-80
2021/05/26 09:30:44;;;;;;;1999.90;999.90;;;15.10;99.90;;;;;;5019808;28;20404;-80
2021/05/26 09:33:22;;;;;;;1999.90;999.90;;;15.10;99.90;;;;;;5037692;28;20401;-80
2021/05/26 09:35:47;;;;;;;1999.90;999.90;;;15.00;99.90;;;;;;5037513;28;20966;-80
2021/05/26 09:38:13;;;;;;;1999.90;999.90;;;15.00;99.90;;;;;;5020132;28;20467;-80
2021/05/26 09:40:39;;;;;;;1999.90;999.90;;;15.00;99.90;;;;;;5037531;28;20530;-80
2021/05/26 09:43:05;;;;;;;1999.90;999.90;;;14.90;99.90;;;;;;5037587;28;20204;-81
2021/05/26 09:45:31;;;;;;;1999.90;999.90;;;14.80;99.90;;;;;;5036945;28;20452;-80
2021/05/26 09:47:58;;;;;;;1999.90;999.90;;;14.70;99.90;;;;;;5019939;28;20266;-81
2021/05/26 09:50:42;;;;;;;1999.90;999.90;;;14.50;99.90;;;;;;5019849;28;20405;-80
2021/05/26 09:53:19;;;;;;;1999.90;999.90;;;14.40;99.90;;;;;;5037842;28;20484;-81
2021/05/26 09:55:49;;;;;;;1999.90;999.90;;;14.40;99.90;;;;;;5019429;28;20414;-80
2021/05/26 09:58:17;;;;;;;1999.90;999.90;;;14.40;99.90;;;;;;5019387;28;20462;-80
2021/05/26 10:00:45;;;;;;;1999.90;999.90;;;14.40;99.90;;;;;;5037625;28;20500;-80
2021/05/26 10:03:11;;;;;;;1999.90;999.90;;;14.40;99.90;;;;;;5037056;28;20431;-81
2021/05/26 10:05:38;;;;;;;1999.90;999.90;;;14.40;99.90;;;;;;5037498;28;20887;-81
2021/05/26 10:08:07;;;;;;;1999.90;999.90;;;14.40;99.90;;;;;;5037938;28;20761;-81
2021/05/26 10:10:34;;;;;;;1999.90;999.90;;;14.30;99.90;;;;;;5037334;28;20469;-81
2021/05/26 10:13:02;;;;;;;1999.90;999.90;;;14.10;99.90;;;;;;5037204;28;20977;-83
2021/05/26 10:15:29;;;;;;;1999.90;999.90;;;14.10;99.90;;;;;;5020322;28;20415;-82
2021/05/26 10:17:58;;;;;;;1999.90;999.90;;;14.10;99.90;;;;;;5038080;28;20431;-82
2021/05/26 10:20:26;;;;;;;1999.90;999.90;;;14.10;99.90;;;;;;5038605;28;20404;-83
2021/05/26 10:22:54;;;;;;;1999.90;999.90;;;14.30;99.90;;;;;;5020570;28;20927;-82
2021/05/26 10:25:20;;;;;;;1999.90;999.90;;;14.20;99.90;;;;;;5037450;28;20443;-82
2021/05/26 10:27:49;;;;;;;1999.90;999.90;;;14.30;99.90;;;;;;5020101;28;20424;-83
2021/05/26 10:30:20;;;;;;;1999.90;999.90;;;14.30;99.90;;;;;;5037864;28;20420;-82
2021/05/26 10:32:59;;;;;;;1999.90;999.90;;;14.20;99.90;;;;;;5037809;28;20400;-82
2021/05/26 10:35:27;;;;;;;1999.90;999.90;;;14.20;99.90;;;;;;5037400;28;20400;-83
2021/05/26 10:38:11;;;;;;;1999.90;999.90;;;14.20;99.90;;;;;;5019869;28;20455;-82
2021/05/26 10:40:41;;;;;;;1999.90;999.90;;;14.10;99.90;;;;;;5019983;28;20488;-82
2021/05/26 10:43:13;;;;;;;1999.90;999.90;;;14.10;99.90;;;;;;5019328;28;20757;-82
2021/05/26 10:45:46;;;;;;;1999.90;999.90;;;14.00;99.90;;;;;;5036756;28;20550;-82
2021/05/26 10:48:12;;;;;;;1999.90;999.90;;;14.10;99.90;;;;;;5036541;28;20470;-83
2021/05/26 10:50:44;;;;;;;1999.90;999.90;;;14.20;99.90;;;;;;5028914;28;20404;-84
2021/05/26 10:53:17;;;;;;;1999.90;999.90;;;14.30;99.90;;;;;;5045179;28;20411;-84
2021/05/26 10:55:48;;;;;;;1999.90;999.90;;;14.40;99.90;;;;;;5044592;28;20396;-83
2021/05/26 10:58:17;;;;;;;1999.90;999.90;;;14.50;99.90;;;;;;5043049;28;20428;-82
2021/05/26 11:01:07;;;;;;;1999.90;999.90;;;14.50;99.90;;;;;;5029306;28;20421;-84
2021/05/26 11:03:43;;;;;;;1999.90;999.90;;;14.60;99.90;;;;;;5046268;28;20411;-84
2021/05/26 11:06:18;;;;;;;1999.90;999.90;;;14.80;99.90;;;;;;5028491;28;20436;-87
2021/05/26 11:08:45;;;;;;;1999.90;999.90;;;14.90;99.90;;;;;;5046261;28;20413;-84
2021/05/26 11:11:33;;;;;;;1999.90;999.90;;;14.80;99.90;;;;;;5045552;28;20470;-84
2021/05/26 11:14:14;;;;;;;1999.90;999.90;;;14.80;99.90;;;;;;5044607;28;20384;-84
2021/05/26 11:16:50;;;;;;;1999.90;999.90;;;14.90;99.90;;;;;;5026794;28;20453;-85
2021/05/26 11:19:32;;;;;;;1999.90;999.90;;;14.90;99.90;;;;;;5046994;28;20431;-85
2021/05/26 11:22:15;;;;;;;1999.90;999.90;;;14.90;99.90;;;;;;5028205;28;20504;-84
2021/05/26 11:24:46;;;;;;;1999.90;999.90;;;15.00;99.90;;;;;;5020334;28;20471;-83
2021/05/26 11:27:26;;;;;;;1999.90;999.90;;;15.00;99.90;;;;;;5021459;28;20409;-84
2021/05/26 11:29:58;;;;;;;1999.90;999.90;;;15.00;99.90;;;;;;5020843;28;20458;-84
2021/05/26 11:32:25;;;;;;;1999.90;999.90;;;15.00;99.90;;;;;;5020812;28;20413;-84
2021/05/26 11:34:53;;;;;;;1999.90;999.90;;;15.00;99.90;;;;;;5039170;28;20504;-85
2021/05/26 11:37:35;;;;;;;1999.90;999.90;;;15.00;99.90;;;;;;5020399;28;20412;-84
2021/05/26 11:40:03;;;;;;;1999.90;999.90;;;15.00;99.90;;;;;;5039729;28;20385;-84
2021/05/26 11:42:32;;;;;;;1999.90;999.90;;;15.00;99.90;;;;;;5038468;28;20772;-83
2021/05/26 11:45:08;;;;;;;1999.90;999.90;;;14.80;99.90;;;;;;5038915;28;20420;-85
2021/05/26 11:47:50;;;;;;;1999.90;999.90;;;14.80;99.90;;;;;;5021699;28;20409;-84
2021/05/26 11:50:16;;;;;;;1999.90;999.90;;;14.70;99.90;;;;;;5021559;28;20396;-84
2021/05/26 11:55:20;;;;;;;1999.90;999.90;;;14.60;99.90;;;;;;5031705;28;20707;-82
2021/05/26 11:57:48;;;;;;;1999.90;999.90;;;14.50;99.90;;;;;;5033169;28;20511;-82
2021/05/26 12:00:27;;;;;;;1999.90;999.90;;;14.50;99.90;;;;;;5033434;28;20400;-83
2021/05/26 12:03:10;;;;;;;1999.90;999.90;;;14.60;99.90;;;;;;5032401;28;20826;-82
2021/05/26 12:05:47;;;;;;;1999.90;999.90;;;14.60;99.90;;;;;;5032782;28;20966;-82
2021/05/26 12:08:13;;;;;;;1999.90;999.90;;;14.70;99.90;;;;;;5032322;28;20955;-82
2021/05/26 12:10:39;;;;;;;1999.90;999.90;;;14.70;99.90;;;;;;5034068;28;20407;-82
2021/05/26 12:13:05;;;;;;;1999.90;999.90;;;14.80;99.90;;;;;;5033614;28;20166;-82
2021/05/26 12:15:32;;;;;;;1999.90;999.90;;;14.90;99.90;;;;;;5033708;28;20406;-82
2021/05/26 12:17:58;;;;;;;1999.90;999.90;;;15.00;99.90;;;;;;5033007;28;20189;-82
2021/05/26 12:20:24;;;;;;;1999.90;999.90;;;15.30;99.90;;;;;;5034494;28;20875;-82
2021/05/26 12:22:51;;;;;;;1999.90;999.90;;;15.30;99.90;;;;;;5033962;28;20400;-83
2021/05/26 12:25:17;;;;;;;1999.90;999.90;;;15.20;99.90;;;;;;5034732;28;20448;-83
2021/05/26 12:27:48;;;;;;;1999.90;999.90;;;15.10;99.90;;;;;;5036814;28;20460;-83
2021/05/26 12:30:20;;;;;;;1999.90;999.90;;;15.20;99.90;;;;;;5036876;28;20415;-83
2021/05/26 12:32:48;;;;;;;1999.90;999.90;;;15.10;99.90;;;;;;5036587;28;20420;-83
2021/05/26 12:35:24;;;;;;;1999.90;999.90;;;15.20;99.90;;;;;;5036580;28;20444;-83
2021/05/26 12:37:51;;;;;;;1999.90;999.90;;;15.40;99.90;;;;;;5037191;28;20428;-83
2021/05/26 12:40:30;;;;;;;1999.90;999.90;;;15.60;99.90;;;;;;5036958;28;20436;-83
2021/05/26 12:42:57;;;;;;;1999.90;999.90;;;15.60;99.90;;;;;;5037671;28;20427;-82